Barnstable Municipal Boardman Polando Field Hyannis US
ICAO: KHYA
IATA: HYA
Category: Medium
Scheduled Services: Yes

Elevation: 54 ft
TransAlt. 18000 ft.

Airport Communications:
CAPE APP/DEP:118.2
ATIS:123.8
CLNC DEL:125.15
CTAF:119.5
GND:121.9
BRIDGEPORT RDO:126.425
HYANNIS TWR:119.5
UNICOM:122.95

KHYA Zoom In..

If Map Doesn't Load, Click Here

Runways:

(A) RW 06 length 5425 ft width 150 ft
---- / hdg 66

(B) RW 15 length 5253 ft width 150 ft
ILS 108.95 / hdg 156

(C) RW 24 length 5425 ft width 150 ft
ILS 109.15 / hdg 246

(D) RW 33 length 5253 ft width 150 ft
---- / hdg 336

Location; KHYA
Day. 21 / Time. 12.56 Zulu
* Altimeter: 30.30
* Temperature: 18° c. 64.4°f.
* Wind from: 130° Speed 06 kn.
Dewpoint: 12° c.
Visibility: 10 Statute Miles.
Clouds: Scattered 2800 ft.

KHYA 211256Z 13006KT 10SM SCT028 18/12 A3030 RMK AO2 SLP260 T01780122


Wind From 130°
Speed 06 kn.

 
 
jpsmedia.com for Web Design worldairports.se 2018   terms of use